sensor_id;sensor_type;location;lat;lon;timestamp;P1;durP1;ratioP1;P2;durP2;ratioP2
17844;SDS011;9047;53.486;10.218;2022-08-03T00:01:32;3.92;;;3.33;;
17844;SDS011;9047;53.486;10.218;2022-08-03T00:04:00;4.47;;;3.80;;
17844;SDS011;9047;53.486;10.218;2022-08-03T00:06:30;3.95;;;3.42;;
17844;SDS011;9047;53.486;10.218;2022-08-03T00:08:58;4.90;;;3.72;;
17844;SDS011;9047;53.486;10.218;2022-08-03T00:11:25;5.03;;;3.60;;
17844;SDS011;9047;53.486;10.218;2022-08-03T00:13:56;3.50;;;3.20;;
17844;SDS011;9047;53.486;10.218;2022-08-03T00:16:24;3.70;;;3.30;;
17844;SDS011;9047;53.486;10.218;2022-08-03T00:19:07;5.40;;;3.88;;
17844;SDS011;9047;53.486;10.218;2022-08-03T00:21:45;4.13;;;3.65;;
17844;SDS011;9047;53.486;10.218;2022-08-03T00:24:13;4.45;;;3.50;;
17844;SDS011;9047;53.486;10.218;2022-08-03T00:26:42;5.28;;;3.90;;
17844;SDS011;9047;53.486;10.218;2022-08-03T00:29:10;6.40;;;3.60;;
17844;SDS011;9047;53.486;10.218;2022-08-03T00:31:37;3.95;;;3.60;;
17844;SDS011;9047;53.486;10.218;2022-08-03T00:34:08;4.65;;;4.20;;
17844;SDS011;9047;53.486;10.218;2022-08-03T00:36:43;5.50;;;4.10;;
17844;SDS011;9047;53.486;10.218;2022-08-03T00:39:15;6.30;;;4.03;;
17844;SDS011;9047;53.486;10.218;2022-08-03T00:41:46;6.10;;;3.92;;
17844;SDS011;9047;53.486;10.218;2022-08-03T00:44:25;5.53;;;4.22;;
17844;SDS011;9047;53.486;10.218;2022-08-03T00:46:52;5.93;;;4.30;;
17844;SDS011;9047;53.486;10.218;2022-08-03T00:49:21;9.77;;;3.88;;
17844;SDS011;9047;53.486;10.218;2022-08-03T00:51:55;5.40;;;4.05;;
17844;SDS011;9047;53.486;10.218;2022-08-03T00:54:24;4.68;;;3.80;;
17844;SDS011;9047;53.486;10.218;2022-08-03T00:56:53;4.10;;;3.70;;
17844;SDS011;9047;53.486;10.218;2022-08-03T00:59:24;4.90;;;3.58;;
17844;SDS011;9047;53.486;10.218;2022-08-03T01:01:54;6.00;;;3.97;;
17844;SDS011;9047;53.486;10.218;2022-08-03T01:04:26;4.32;;;3.75;;
17844;SDS011;9047;53.486;10.218;2022-08-03T01:06:58;4.80;;;4.00;;
17844;SDS011;9047;53.486;10.218;2022-08-03T01:09:36;4.55;;;3.72;;
17844;SDS011;9047;53.486;10.218;2022-08-03T01:12:23;5.03;;;3.85;;
17844;SDS011;9047;53.486;10.218;2022-08-03T01:15:02;4.97;;;4.07;;
17844;SDS011;9047;53.486;10.218;2022-08-03T01:17:42;4.13;;;3.72;;
17844;SDS011;9047;53.486;10.218;2022-08-03T01:20:15;5.65;;;4.22;;
17844;SDS011;9047;53.486;10.218;2022-08-03T01:22:55;5.95;;;4.10;;
17844;SDS011;9047;53.486;10.218;2022-08-03T01:25:48;5.32;;;3.75;;
17844;SDS011;9047;53.486;10.218;2022-08-03T01:28:38;4.10;;;3.70;;
17844;SDS011;9047;53.486;10.218;2022-08-03T01:31:31;5.10;;;4.20;;
17844;SDS011;9047;53.486;10.218;2022-08-03T01:34:05;6.90;;;4.22;;
17844;SDS011;9047;53.486;10.218;2022-08-03T01:36:38;4.13;;;3.72;;
17844;SDS011;9047;53.486;10.218;2022-08-03T01:39:12;4.93;;;4.13;;
17844;SDS011;9047;53.486;10.218;2022-08-03T01:41:49;4.80;;;4.10;;
17844;SDS011;9047;53.486;10.218;2022-08-03T01:44:23;4.55;;;3.72;;
17844;SDS011;9047;53.486;10.218;2022-08-03T01:47:00;4.60;;;4.10;;
17844;SDS011;9047;53.486;10.218;2022-08-03T01:49:31;5.10;;;4.10;;
17844;SDS011;9047;53.486;10.218;2022-08-03T01:52:05;4.95;;;4.45;;
17844;SDS011;9047;53.486;10.218;2022-08-03T01:54:35;5.07;;;4.15;;
17844;SDS011;9047;53.486;10.218;2022-08-03T01:57:09;6.38;;;4.22;;
17844;SDS011;9047;53.486;10.218;2022-08-03T01:59:38;4.97;;;4.20;;
17844;SDS011;9047;53.486;10.218;2022-08-03T02:02:09;5.38;;;4.47;;
17844;SDS011;9047;53.486;10.218;2022-08-03T02:04:41;5.07;;;4.13;;
17844;SDS011;9047;53.486;10.218;2022-08-03T02:07:12;5.50;;;4.40;;
17844;SDS011;9047;53.486;10.218;2022-08-03T02:09:44;7.22;;;4.28;;
17844;SDS011;9047;53.486;10.218;2022-08-03T02:12:15;4.53;;;4.00;;
17844;SDS011;9047;53.486;10.218;2022-08-03T02:14:45;5.22;;;4.00;;
17844;SDS011;9047;53.486;10.218;2022-08-03T02:17:17;5.65;;;4.68;;
17844;SDS011;9047;53.486;10.218;2022-08-03T02:19:46;5.13;;;4.25;;
17844;SDS011;9047;53.486;10.218;2022-08-03T02:22:16;5.25;;;4.40;;
17844;SDS011;9047;53.486;10.218;2022-08-03T02:24:51;4.93;;;4.43;;
17844;SDS011;9047;53.486;10.218;2022-08-03T02:27:26;4.80;;;4.30;;
17844;SDS011;9047;53.486;10.218;2022-08-03T02:30:01;6.05;;;4.70;;
17844;SDS011;9047;53.486;10.218;2022-08-03T02:32:33;5.75;;;4.18;;
17844;SDS011;9047;53.486;10.218;2022-08-03T02:35:03;4.80;;;4.30;;
17844;SDS011;9047;53.486;10.218;2022-08-03T02:37:36;6.10;;;4.72;;
17844;SDS011;9047;53.486;10.218;2022-08-03T02:40:15;4.47;;;4.07;;
17844;SDS011;9047;53.486;10.218;2022-08-03T02:42:59;6.75;;;4.60;;
17844;SDS011;9047;53.486;10.218;2022-08-03T02:45:31;5.25;;;4.32;;
17844;SDS011;9047;53.486;10.218;2022-08-03T02:48:03;5.32;;;4.80;;
17844;SDS011;9047;53.486;10.218;2022-08-03T02:50:33;5.47;;;4.40;;
17844;SDS011;9047;53.486;10.218;2022-08-03T02:53:02;5.32;;;4.78;;
17844;SDS011;9047;53.486;10.218;2022-08-03T02:55:33;7.63;;;4.88;;
17844;SDS011;9047;53.486;10.218;2022-08-03T02:58:02;5.68;;;4.88;;
17844;SDS011;9047;53.486;10.218;2022-08-03T03:00:31;7.55;;;4.93;;
17844;SDS011;9047;53.486;10.218;2022-08-03T03:03:10;6.22;;;4.63;;
17844;SDS011;9047;53.486;10.218;2022-08-03T03:05:41;6.15;;;4.68;;
17844;SDS011;9047;53.486;10.218;2022-08-03T03:08:15;6.85;;;5.03;;
17844;SDS011;9047;53.486;10.218;2022-08-03T03:10:44;5.35;;;4.43;;
17844;SDS011;9047;53.486;10.218;2022-08-03T03:13:14;5.00;;;4.50;;
17844;SDS011;9047;53.486;10.218;2022-08-03T03:15:43;5.82;;;4.85;;
17844;SDS011;9047;53.486;10.218;2022-08-03T03:18:15;6.38;;;4.63;;
17844;SDS011;9047;53.486;10.218;2022-08-03T03:20:45;6.22;;;4.50;;
17844;SDS011;9047;53.486;10.218;2022-08-03T03:23:14;5.57;;;4.88;;
17844;SDS011;9047;53.486;10.218;2022-08-03T03:25:43;6.93;;;5.00;;
17844;SDS011;9047;53.486;10.218;2022-08-03T03:28:11;8.43;;;5.28;;
17844;SDS011;9047;53.486;10.218;2022-08-03T03:30:50;5.50;;;4.68;;
17844;SDS011;9047;53.486;10.218;2022-08-03T03:33:21;5.65;;;5.05;;
17844;SDS011;9047;53.486;10.218;2022-08-03T03:35:50;5.80;;;4.90;;
17844;SDS011;9047;53.486;10.218;2022-08-03T03:38:21;5.53;;;5.00;;
17844;SDS011;9047;53.486;10.218;2022-08-03T03:40:54;6.07;;;5.07;;
17844;SDS011;9047;53.486;10.218;2022-08-03T03:43:26;6.88;;;5.07;;
17844;SDS011;9047;53.486;10.218;2022-08-03T03:45:54;7.38;;;4.60;;
17844;SDS011;9047;53.486;10.218;2022-08-03T03:48:36;5.53;;;4.95;;
17844;SDS011;9047;53.486;10.218;2022-08-03T03:51:05;5.65;;;4.70;;
17844;SDS011;9047;53.486;10.218;2022-08-03T03:53:36;5.00;;;4.50;;
17844;SDS011;9047;53.486;10.218;2022-08-03T03:56:04;6.95;;;5.43;;
17844;SDS011;9047;53.486;10.218;2022-08-03T03:58:34;6.10;;;5.50;;
17844;SDS011;9047;53.486;10.218;2022-08-03T04:01:02;6.25;;;5.38;;
17844;SDS011;9047;53.486;10.218;2022-08-03T04:03:30;6.85;;;5.60;;
17844;SDS011;9047;53.486;10.218;2022-08-03T04:05:58;7.65;;;5.25;;
17844;SDS011;9047;53.486;10.218;2022-08-03T04:08:41;8.00;;;6.00;;
17844;SDS011;9047;53.486;10.218;2022-08-03T04:11:39;6.88;;;5.65;;
17844;SDS011;9047;53.486;10.218;2022-08-03T04:14:15;7.35;;;5.40;;
17844;SDS011;9047;53.486;10.218;2022-08-03T04:16:48;6.22;;;5.63;;
17844;SDS011;9047;53.486;10.218;2022-08-03T04:19:23;5.43;;;4.93;;
17844;SDS011;9047;53.486;10.218;2022-08-03T04:22:05;7.10;;;5.40;;
17844;SDS011;9047;53.486;10.218;2022-08-03T04:24:37;6.88;;;5.75;;
17844;SDS011;9047;53.486;10.218;2022-08-03T04:27:15;6.78;;;4.90;;
17844;SDS011;9047;53.486;10.218;2022-08-03T04:29:48;5.72;;;5.10;;
17844;SDS011;9047;53.486;10.218;2022-08-03T04:32:19;7.32;;;4.95;;
17844;SDS011;9047;53.486;10.218;2022-08-03T04:34:52;5.97;;;4.95;;
17844;SDS011;9047;53.486;10.218;2022-08-03T04:37:33;6.43;;;5.15;;
17844;SDS011;9047;53.486;10.218;2022-08-03T04:40:08;12.68;;;5.57;;
17844;SDS011;9047;53.486;10.218;2022-08-03T04:42:38;5.28;;;4.78;;
17844;SDS011;9047;53.486;10.218;2022-08-03T04:45:09;6.05;;;4.93;;
17844;SDS011;9047;53.486;10.218;2022-08-03T04:47:38;6.20;;;5.20;;
17844;SDS011;9047;53.486;10.218;2022-08-03T04:50:07;6.53;;;5.15;;
17844;SDS011;9047;53.486;10.218;2022-08-03T04:52:42;6.20;;;4.97;;
17844;SDS011;9047;53.486;10.218;2022-08-03T04:55:09;6.43;;;5.75;;
17844;SDS011;9047;53.486;10.218;2022-08-03T04:57:36;8.25;;;5.63;;
17844;SDS011;9047;53.486;10.218;2022-08-03T05:00:06;5.80;;;5.30;;
17844;SDS011;9047;53.486;10.218;2022-08-03T05:02:37;7.07;;;5.40;;
17844;SDS011;9047;53.486;10.218;2022-08-03T05:05:05;5.45;;;4.90;;
17844;SDS011;9047;53.486;10.218;2022-08-03T05:07:32;5.88;;;5.28;;
17844;SDS011;9047;53.486;10.218;2022-08-03T05:10:01;6.28;;;5.55;;
17844;SDS011;9047;53.486;10.218;2022-08-03T05:12:28;6.13;;;4.80;;
17844;SDS011;9047;53.486;10.218;2022-08-03T05:14:56;7.32;;;5.45;;
17844;SDS011;9047;53.486;10.218;2022-08-03T05:17:23;8.13;;;5.60;;
17844;SDS011;9047;53.486;10.218;2022-08-03T05:19:50;8.50;;;5.97;;
17844;SDS011;9047;53.486;10.218;2022-08-03T05:22:17;6.45;;;5.53;;
17844;SDS011;9047;53.486;10.218;2022-08-03T05:24:51;8.23;;;5.57;;
17844;SDS011;9047;53.486;10.218;2022-08-03T05:27:26;6.35;;;5.53;;
17844;SDS011;9047;53.486;10.218;2022-08-03T05:30:00;6.10;;;4.95;;
17844;SDS011;9047;53.486;10.218;2022-08-03T05:32:59;6.40;;;4.80;;
17844;SDS011;9047;53.486;10.218;2022-08-03T05:35:27;7.43;;;5.35;;
17844;SDS011;9047;53.486;10.218;2022-08-03T05:37:57;5.72;;;5.18;;
17844;SDS011;9047;53.486;10.218;2022-08-03T05:40:31;5.97;;;5.30;;
17844;SDS011;9047;53.486;10.218;2022-08-03T05:43:02;6.47;;;5.00;;
17844;SDS011;9047;53.486;10.218;2022-08-03T05:45:30;6.43;;;5.20;;
17844;SDS011;9047;53.486;10.218;2022-08-03T05:48:02;7.93;;;5.60;;
17844;SDS011;9047;53.486;10.218;2022-08-03T05:50:30;8.30;;;5.13;;
17844;SDS011;9047;53.486;10.218;2022-08-03T05:52:59;7.00;;;5.70;;
17844;SDS011;9047;53.486;10.218;2022-08-03T05:55:26;5.75;;;5.13;;
17844;SDS011;9047;53.486;10.218;2022-08-03T05:57:53;8.55;;;5.30;;
17844;SDS011;9047;53.486;10.218;2022-08-03T06:00:21;6.05;;;5.45;;
17844;SDS011;9047;53.486;10.218;2022-08-03T06:02:56;6.75;;;5.28;;
17844;SDS011;9047;53.486;10.218;2022-08-03T06:05:23;5.95;;;5.30;;
17844;SDS011;9047;53.486;10.218;2022-08-03T06:07:52;7.15;;;5.50;;
17844;SDS011;9047;53.486;10.218;2022-08-03T06:10:20;6.75;;;5.10;;
17844;SDS011;9047;53.486;10.218;2022-08-03T06:13:02;5.95;;;4.90;;
17844;SDS011;9047;53.486;10.218;2022-08-03T06:15:30;7.22;;;5.13;;
17844;SDS011;9047;53.486;10.218;2022-08-03T06:17:59;7.75;;;5.10;;
17844;SDS011;9047;53.486;10.218;2022-08-03T06:20:26;6.93;;;5.05;;
17844;SDS011;9047;53.486;10.218;2022-08-03T06:22:53;5.50;;;4.55;;
17844;SDS011;9047;53.486;10.218;2022-08-03T06:25:20;8.18;;;4.57;;
17844;SDS011;9047;53.486;10.218;2022-08-03T06:27:46;5.90;;;4.10;;
17844;SDS011;9047;53.486;10.218;2022-08-03T06:30:14;7.15;;;4.68;;
17844;SDS011;9047;53.486;10.218;2022-08-03T06:32:44;7.20;;;4.32;;
17844;SDS011;9047;53.486;10.218;2022-08-03T06:35:11;6.30;;;4.45;;
17844;SDS011;9047;53.486;10.218;2022-08-03T06:37:41;5.47;;;3.80;;
17844;SDS011;9047;53.486;10.218;2022-08-03T06:40:11;4.75;;;4.00;;
17844;SDS011;9047;53.486;10.218;2022-08-03T06:42:43;4.78;;;3.88;;
17844;SDS011;9047;53.486;10.218;2022-08-03T06:45:11;5.35;;;3.92;;
17844;SDS011;9047;53.486;10.218;2022-08-03T06:47:41;6.85;;;3.90;;
17844;SDS011;9047;53.486;10.218;2022-08-03T06:50:13;3.78;;;3.35;;
17844;SDS011;9047;53.486;10.218;2022-08-03T06:52:40;3.90;;;3.50;;
17844;SDS011;9047;53.486;10.218;2022-08-03T06:55:07;3.90;;;3.33;;
17844;SDS011;9047;53.486;10.218;2022-08-03T06:57:34;4.18;;;3.40;;
17844;SDS011;9047;53.486;10.218;2022-08-03T07:00:01;4.90;;;3.40;;
17844;SDS011;9047;53.486;10.218;2022-08-03T07:02:28;5.00;;;3.30;;
17844;SDS011;9047;53.486;10.218;2022-08-03T07:04:57;5.25;;;2.97;;
17844;SDS011;9047;53.486;10.218;2022-08-03T07:07:25;4.93;;;3.33;;
17844;SDS011;9047;53.486;10.218;2022-08-03T07:09:52;4.05;;;3.70;;
17844;SDS011;9047;53.486;10.218;2022-08-03T07:12:18;3.70;;;3.40;;
17844;SDS011;9047;53.486;10.218;2022-08-03T07:14:45;4.63;;;3.58;;
17844;SDS011;9047;53.486;10.218;2022-08-03T07:17:13;4.82;;;3.55;;
17844;SDS011;9047;53.486;10.218;2022-08-03T07:19:39;6.97;;;3.60;;
17844;SDS011;9047;53.486;10.218;2022-08-03T07:22:09;5.00;;;3.28;;
17844;SDS011;9047;53.486;10.218;2022-08-03T07:24:35;4.05;;;3.50;;
17844;SDS011;9047;53.486;10.218;2022-08-03T07:27:04;6.43;;;3.63;;
17844;SDS011;9047;53.486;10.218;2022-08-03T07:29:31;6.22;;;3.13;;
17844;SDS011;9047;53.486;10.218;2022-08-03T07:31:59;5.15;;;3.92;;
17844;SDS011;9047;53.486;10.218;2022-08-03T07:34:26;3.03;;;2.72;;
17844;SDS011;9047;53.486;10.218;2022-08-03T07:36:53;4.65;;;3.17;;
17844;SDS011;9047;53.486;10.218;2022-08-03T07:39:22;4.18;;;2.83;;
17844;SDS011;9047;53.486;10.218;2022-08-03T07:41:51;3.78;;;2.83;;
17844;SDS011;9047;53.486;10.218;2022-08-03T07:44:18;4.07;;;3.20;;
17844;SDS011;9047;53.486;10.218;2022-08-03T07:46:46;6.68;;;3.10;;
17844;SDS011;9047;53.486;10.218;2022-08-03T07:49:14;5.82;;;3.60;;
17844;SDS011;9047;53.486;10.218;2022-08-03T07:51:41;5.78;;;3.42;;
17844;SDS011;9047;53.486;10.218;2022-08-03T07:54:33;4.70;;;2.55;;
17844;SDS011;9047;53.486;10.218;2022-08-03T07:56:59;3.40;;;2.40;;
17844;SDS011;9047;53.486;10.218;2022-08-03T07:59:27;3.78;;;2.90;;
17844;SDS011;9047;53.486;10.218;2022-08-03T08:01:54;5.53;;;2.53;;
17844;SDS011;9047;53.486;10.218;2022-08-03T08:04:21;5.47;;;2.58;;
17844;SDS011;9047;53.486;10.218;2022-08-03T08:06:48;3.25;;;2.42;;
17844;SDS011;9047;53.486;10.218;2022-08-03T08:09:15;4.90;;;2.90;;
17844;SDS011;9047;53.486;10.218;2022-08-03T08:11:46;5.18;;;3.13;;
17844;SDS011;9047;53.486;10.218;2022-08-03T08:14:20;3.15;;;2.70;;
17844;SDS011;9047;53.486;10.218;2022-08-03T08:16:47;2.67;;;2.00;;
17844;SDS011;9047;53.486;10.218;2022-08-03T08:19:16;2.90;;;2.00;;
17844;SDS011;9047;53.486;10.218;2022-08-03T08:21:43;2.70;;;1.75;;
17844;SDS011;9047;53.486;10.218;2022-08-03T08:24:10;3.55;;;2.03;;
17844;SDS011;9047;53.486;10.218;2022-08-03T08:26:39;3.20;;;2.17;;
17844;SDS011;9047;53.486;10.218;2022-08-03T08:29:08;4.13;;;2.22;;
17844;SDS011;9047;53.486;10.218;2022-08-03T08:31:38;3.45;;;2.00;;
17844;SDS011;9047;53.486;10.218;2022-08-03T08:34:14;2.55;;;2.00;;
17844;SDS011;9047;53.486;10.218;2022-08-03T08:36:42;3.10;;;2.00;;
17844;SDS011;9047;53.486;10.218;2022-08-03T08:39:10;6.03;;;2.42;;
17844;SDS011;9047;53.486;10.218;2022-08-03T08:41:42;5.82;;;2.55;;
17844;SDS011;9047;53.486;10.218;2022-08-03T08:44:14;4.57;;;2.30;;
17844;SDS011;9047;53.486;10.218;2022-08-03T08:46:40;2.75;;;2.10;;
17844;SDS011;9047;53.486;10.218;2022-08-03T08:49:08;3.30;;;2.10;;
17844;SDS011;9047;53.486;10.218;2022-08-03T08:51:36;3.28;;;1.98;;
17844;SDS011;9047;53.486;10.218;2022-08-03T08:54:06;4.20;;;2.03;;
17844;SDS011;9047;53.486;10.218;2022-08-03T08:56:34;3.30;;;1.98;;
17844;SDS011;9047;53.486;10.218;2022-08-03T08:59:03;4.53;;;1.80;;
17844;SDS011;9047;53.486;10.218;2022-08-03T09:01:35;3.67;;;2.15;;
17844;SDS011;9047;53.486;10.218;2022-08-03T09:04:05;2.10;;;1.80;;
17844;SDS011;9047;53.486;10.218;2022-08-03T09:06:33;3.70;;;1.85;;
17844;SDS011;9047;53.486;10.218;2022-08-03T09:09:01;4.20;;;1.88;;
17844;SDS011;9047;53.486;10.218;2022-08-03T09:11:28;5.30;;;2.00;;
17844;SDS011;9047;53.486;10.218;2022-08-03T09:13:55;2.75;;;1.70;;
17844;SDS011;9047;53.486;10.218;2022-08-03T09:16:22;3.95;;;1.80;;
17844;SDS011;9047;53.486;10.218;2022-08-03T09:18:52;4.63;;;1.90;;
17844;SDS011;9047;53.486;10.218;2022-08-03T09:21:21;2.35;;;1.70;;
17844;SDS011;9047;53.486;10.218;2022-08-03T09:23:52;2.53;;;1.58;;
17844;SDS011;9047;53.486;10.218;2022-08-03T09:26:21;4.65;;;1.95;;
17844;SDS011;9047;53.486;10.218;2022-08-03T09:28:58;3.38;;;1.80;;
17844;SDS011;9047;53.486;10.218;2022-08-03T09:31:31;4.68;;;2.10;;
17844;SDS011;9047;53.486;10.218;2022-08-03T09:34:04;5.45;;;2.13;;
17844;SDS011;9047;53.486;10.218;2022-08-03T09:36:33;4.10;;;1.70;;
17844;SDS011;9047;53.486;10.218;2022-08-03T09:39:08;3.40;;;1.60;;
17844;SDS011;9047;53.486;10.218;2022-08-03T09:41:37;5.05;;;1.75;;
17844;SDS011;9047;53.486;10.218;2022-08-03T09:44:12;3.63;;;1.95;;
17844;SDS011;9047;53.486;10.218;2022-08-03T09:46:49;3.10;;;1.60;;
17844;SDS011;9047;53.486;10.218;2022-08-03T09:49:20;5.40;;;1.80;;
17844;SDS011;9047;53.486;10.218;2022-08-03T09:51:47;4.07;;;1.63;;
17844;SDS011;9047;53.486;10.218;2022-08-03T09:54:24;4.35;;;1.67;;
17844;SDS011;9047;53.486;10.218;2022-08-03T09:56:52;3.17;;;1.63;;
17844;SDS011;9047;53.486;10.218;2022-08-03T09:59:22;5.78;;;1.83;;
17844;SDS011;9047;53.486;10.218;2022-08-03T10:01:50;3.85;;;1.83;;
17844;SDS011;9047;53.486;10.218;2022-08-03T10:04:18;3.42;;;1.75;;
17844;SDS011;9047;53.486;10.218;2022-08-03T10:07:00;4.93;;;1.90;;
17844;SDS011;9047;53.486;10.218;2022-08-03T10:09:29;5.95;;;1.60;;
17844;SDS011;9047;53.486;10.218;2022-08-03T10:12:07;4.30;;;1.58;;
17844;SDS011;9047;53.486;10.218;2022-08-03T10:14:43;4.60;;;1.70;;
17844;SDS011;9047;53.486;10.218;2022-08-03T10:17:13;3.85;;;1.80;;
17844;SDS011;9047;53.486;10.218;2022-08-03T10:19:46;4.70;;;1.75;;
17844;SDS011;9047;53.486;10.218;2022-08-03T10:22:18;4.32;;;1.95;;
17844;SDS011;9047;53.486;10.218;2022-08-03T10:24:52;4.60;;;1.90;;
17844;SDS011;9047;53.486;10.218;2022-08-03T10:27:26;4.75;;;1.92;;
17844;SDS011;9047;53.486;10.218;2022-08-03T10:29:59;4.22;;;1.77;;
17844;SDS011;9047;53.486;10.218;2022-08-03T10:32:29;5.25;;;2.08;;
17844;SDS011;9047;53.486;10.218;2022-08-03T10:35:29;5.38;;;1.67;;
17844;SDS011;9047;53.486;10.218;2022-08-03T10:38:00;4.20;;;1.88;;
17844;SDS011;9047;53.486;10.218;2022-08-03T10:40:30;4.20;;;1.90;;
17844;SDS011;9047;53.486;10.218;2022-08-03T10:43:01;4.40;;;1.80;;
17844;SDS011;9047;53.486;10.218;2022-08-03T10:45:33;7.82;;;2.08;;
17844;SDS011;9047;53.486;10.218;2022-08-03T10:48:06;3.08;;;1.70;;
17844;SDS011;9047;53.486;10.218;2022-08-03T10:50:36;5.68;;;2.13;;
17844;SDS011;9047;53.486;10.218;2022-08-03T10:53:07;3.78;;;1.67;;
17844;SDS011;9047;53.486;10.218;2022-08-03T10:55:36;3.97;;;1.70;;
17844;SDS011;9047;53.486;10.218;2022-08-03T10:58:45;5.85;;;2.10;;
17844;SDS011;9047;53.486;10.218;2022-08-03T11:04:19;5.47;;;1.95;;
17844;SDS011;9047;53.486;10.218;2022-08-03T11:07:17;4.93;;;1.85;;
17844;SDS011;9047;53.486;10.218;2022-08-03T11:09:48;6.45;;;2.10;;
17844;SDS011;9047;53.486;10.218;2022-08-03T11:12:20;5.93;;;1.77;;
17844;SDS011;9047;53.486;10.218;2022-08-03T11:14:49;5.88;;;2.20;;
17844;SDS011;9047;53.486;10.218;2022-08-03T11:17:23;4.95;;;2.00;;
17844;SDS011;9047;53.486;10.218;2022-08-03T11:19:51;3.75;;;2.08;;
17844;SDS011;9047;53.486;10.218;2022-08-03T11:22:46;5.60;;;1.83;;
17844;SDS011;9047;53.486;10.218;2022-08-03T11:25:21;4.00;;;1.85;;
17844;SDS011;9047;53.486;10.218;2022-08-03T11:31:13;3.92;;;1.65;;
17844;SDS011;9047;53.486;10.218;2022-08-03T11:34:15;5.35;;;1.90;;
17844;SDS011;9047;53.486;10.218;2022-08-03T11:39:49;4.28;;;1.65;;
17844;SDS011;9047;53.486;10.218;2022-08-03T11:45:06;3.83;;;1.80;;
17844;SDS011;9047;53.486;10.218;2022-08-03T11:47:37;2.65;;;1.63;;
17844;SDS011;9047;53.486;10.218;2022-08-03T11:50:06;4.30;;;1.75;;
17844;SDS011;9047;53.486;10.218;2022-08-03T11:52:34;4.07;;;1.85;;
17844;SDS011;9047;53.486;10.218;2022-08-03T11:57:51;4.85;;;1.80;;
17844;SDS011;9047;53.486;10.218;2022-08-03T12:00:25;4.53;;;1.77;;
17844;SDS011;9047;53.486;10.218;2022-08-03T12:02:58;2.50;;;1.30;;
17844;SDS011;9047;53.486;10.218;2022-08-03T12:08:36;4.20;;;1.80;;
17844;SDS011;9047;53.486;10.218;2022-08-03T12:11:10;4.47;;;1.58;;
17844;SDS011;9047;53.486;10.218;2022-08-03T12:13:38;5.13;;;1.63;;
17844;SDS011;9047;53.486;10.218;2022-08-03T12:16:08;5.85;;;2.03;;
17844;SDS011;9047;53.486;10.218;2022-08-03T12:18:36;6.82;;;2.15;;
17844;SDS011;9047;53.486;10.218;2022-08-03T12:21:04;5.95;;;1.88;;
17844;SDS011;9047;53.486;10.218;2022-08-03T12:23:35;3.78;;;1.80;;
17844;SDS011;9047;53.486;10.218;2022-08-03T12:26:07;3.90;;;1.75;;
17844;SDS011;9047;53.486;10.218;2022-08-03T12:28:40;3.88;;;1.70;;
17844;SDS011;9047;53.486;10.218;2022-08-03T12:31:14;9.75;;;2.00;;
17844;SDS011;9047;53.486;10.218;2022-08-03T12:33:59;5.75;;;1.88;;
17844;SDS011;9047;53.486;10.218;2022-08-03T12:36:28;5.93;;;1.92;;
17844;SDS011;9047;53.486;10.218;2022-08-03T12:38:58;3.45;;;1.63;;
17844;SDS011;9047;53.486;10.218;2022-08-03T12:41:30;7.93;;;2.08;;
17844;SDS011;9047;53.486;10.218;2022-08-03T12:43:59;4.25;;;1.88;;
17844;SDS011;9047;53.486;10.218;2022-08-03T12:46:29;4.07;;;1.60;;
17844;SDS011;9047;53.486;10.218;2022-08-03T12:48:59;4.25;;;1.77;;
17844;SDS011;9047;53.486;10.218;2022-08-03T12:51:32;4.18;;;1.70;;
17844;SDS011;9047;53.486;10.218;2022-08-03T12:54:00;5.43;;;1.73;;
17844;SDS011;9047;53.486;10.218;2022-08-03T12:56:30;6.78;;;1.77;;
17844;SDS011;9047;53.486;10.218;2022-08-03T12:58:58;7.93;;;1.73;;
17844;SDS011;9047;53.486;10.218;2022-08-03T13:01:25;5.00;;;1.92;;
17844;SDS011;9047;53.486;10.218;2022-08-03T13:04:02;4.50;;;1.75;;
17844;SDS011;9047;53.486;10.218;2022-08-03T13:06:35;5.25;;;1.70;;
17844;SDS011;9047;53.486;10.218;2022-08-03T13:09:03;3.10;;;1.33;;
17844;SDS011;9047;53.486;10.218;2022-08-03T13:11:33;3.90;;;1.52;;
17844;SDS011;9047;53.486;10.218;2022-08-03T13:14:00;6.35;;;1.70;;
17844;SDS011;9047;53.486;10.218;2022-08-03T13:16:28;4.93;;;1.65;;
17844;SDS011;9047;53.486;10.218;2022-08-03T13:18:56;7.20;;;1.95;;
17844;SDS011;9047;53.486;10.218;2022-08-03T13:21:22;4.32;;;1.40;;
17844;SDS011;9047;53.486;10.218;2022-08-03T13:23:49;4.55;;;1.75;;
17844;SDS011;9047;53.486;10.218;2022-08-03T13:26:16;5.05;;;1.75;;
17844;SDS011;9047;53.486;10.218;2022-08-03T13:28:45;4.95;;;1.85;;
17844;SDS011;9047;53.486;10.218;2022-08-03T13:31:12;4.57;;;1.70;;
17844;SDS011;9047;53.486;10.218;2022-08-03T13:33:39;6.45;;;1.85;;
17844;SDS011;9047;53.486;10.218;2022-08-03T13:36:06;4.93;;;1.63;;
17844;SDS011;9047;53.486;10.218;2022-08-03T13:38:33;4.63;;;1.88;;
17844;SDS011;9047;53.486;10.218;2022-08-03T13:41:00;5.22;;;1.70;;
17844;SDS011;9047;53.486;10.218;2022-08-03T13:43:30;4.75;;;1.88;;
17844;SDS011;9047;53.486;10.218;2022-08-03T13:45:59;4.07;;;1.75;;
17844;SDS011;9047;53.486;10.218;2022-08-03T13:48:26;6.43;;;2.00;;
17844;SDS011;9047;53.486;10.218;2022-08-03T13:50:53;5.15;;;1.50;;
17844;SDS011;9047;53.486;10.218;2022-08-03T13:53:20;5.20;;;1.80;;
17844;SDS011;9047;53.486;10.218;2022-08-03T13:55:48;6.32;;;1.98;;
17844;SDS011;9047;53.486;10.218;2022-08-03T13:58:15;5.20;;;1.85;;
17844;SDS011;9047;53.486;10.218;2022-08-03T14:00:42;4.50;;;1.60;;
17844;SDS011;9047;53.486;10.218;2022-08-03T14:03:12;5.05;;;1.80;;
17844;SDS011;9047;53.486;10.218;2022-08-03T14:05:39;6.05;;;1.70;;
17844;SDS011;9047;53.486;10.218;2022-08-03T14:08:07;6.57;;;1.98;;
17844;SDS011;9047;53.486;10.218;2022-08-03T14:10:34;3.47;;;1.95;;
17844;SDS011;9047;53.486;10.218;2022-08-03T14:13:05;4.05;;;1.80;;
17844;SDS011;9047;53.486;10.218;2022-08-03T14:15:37;5.28;;;1.83;;
17844;SDS011;9047;53.486;10.218;2022-08-03T14:18:04;4.57;;;1.90;;
17844;SDS011;9047;53.486;10.218;2022-08-03T14:20:35;5.57;;;2.17;;
17844;SDS011;9047;53.486;10.218;2022-08-03T14:23:03;5.18;;;1.80;;
17844;SDS011;9047;53.486;10.218;2022-08-03T14:25:30;2.92;;;1.65;;
17844;SDS011;9047;53.486;10.218;2022-08-03T14:28:00;3.97;;;1.60;;
17844;SDS011;9047;53.486;10.218;2022-08-03T14:30:27;3.28;;;1.55;;
17844;SDS011;9047;53.486;10.218;2022-08-03T14:32:56;5.30;;;1.40;;
17844;SDS011;9047;53.486;10.218;2022-08-03T14:35:24;5.18;;;1.63;;
17844;SDS011;9047;53.486;10.218;2022-08-03T14:37:56;2.67;;;1.83;;
17844;SDS011;9047;53.486;10.218;2022-08-03T14:40:22;5.93;;;2.03;;
17844;SDS011;9047;53.486;10.218;2022-08-03T14:42:49;5.05;;;1.65;;
17844;SDS011;9047;53.486;10.218;2022-08-03T14:45:16;8.15;;;1.80;;
17844;SDS011;9047;53.486;10.218;2022-08-03T14:47:43;4.50;;;1.50;;
17844;SDS011;9047;53.486;10.218;2022-08-03T14:50:10;3.20;;;1.50;;
17844;SDS011;9047;53.486;10.218;2022-08-03T14:52:37;3.42;;;1.70;;
17844;SDS011;9047;53.486;10.218;2022-08-03T14:55:06;5.18;;;1.75;;
17844;SDS011;9047;53.486;10.218;2022-08-03T14:57:35;5.97;;;1.83;;
17844;SDS011;9047;53.486;10.218;2022-08-03T15:00:02;4.60;;;1.80;;
17844;SDS011;9047;53.486;10.218;2022-08-03T15:02:30;5.30;;;1.70;;
17844;SDS011;9047;53.486;10.218;2022-08-03T15:04:57;3.40;;;1.80;;
17844;SDS011;9047;53.486;10.218;2022-08-03T15:07:24;6.95;;;1.92;;
17844;SDS011;9047;53.486;10.218;2022-08-03T15:09:52;4.55;;;1.60;;
17844;SDS011;9047;53.486;10.218;2022-08-03T15:12:20;3.53;;;1.83;;
17844;SDS011;9047;53.486;10.218;2022-08-03T15:14:47;4.47;;;1.65;;
17844;SDS011;9047;53.486;10.218;2022-08-03T15:17:17;4.40;;;1.90;;
17844;SDS011;9047;53.486;10.218;2022-08-03T15:19:46;4.72;;;1.77;;
17844;SDS011;9047;53.486;10.218;2022-08-03T15:22:22;7.75;;;1.95;;
17844;SDS011;9047;53.486;10.218;2022-08-03T15:24:55;4.68;;;1.75;;
17844;SDS011;9047;53.486;10.218;2022-08-03T15:27:28;4.07;;;1.75;;
17844;SDS011;9047;53.486;10.218;2022-08-03T15:29:55;4.35;;;1.77;;